Time,TemperatureF,DewpointF,PressureIn,WindDirection,WindDirectionDegrees,WindSpeedMPH,WindSpeedGustMPH,Humidity,HourlyPrecipIn,Conditions,Clouds,dailyrainin,SolarRadiationWatts/m^2,SoftwareType,DateUTC
2013-09-04 00:00:00,73.7,64.9,29.98,NNE,26,0.0,13.0,74,0.00,,,0.00,0,Wunderground v.1.15,2013-09-04 04:00:00,
2013-09-04 01:00:00,72.3,63.5,29.98,NNE,26,0.0,13.0,74,0.00,,,0.00,0,Wunderground v.1.15,2013-09-04 05:00:00,
2013-09-04 02:00:00,71.6,63.3,29.99,NNE,26,0.0,13.0,75,0.00,,,0.00,0,Wunderground v.1.15,2013-09-04 06:00:00,
2013-09-04 03:00:00,70.4,62.1,29.97,NE,53,0.0,13.0,75,0.00,,,0.00,0,Wunderground v.1.15,2013-09-04 07:00:00,
2013-09-04 04:00:00,69.9,62.0,29.97,NNE,32,0.0,13.0,76,0.00,,,0.00,0,Wunderground v.1.15,2013-09-04 08:00:00,
2013-09-04 05:00:00,68.9,62.5,29.98,SSE,159,0.0,13.0,80,0.00,,,0.00,0,Wunderground v.1.15,2013-09-04 09:00:00,
2013-09-04 06:00:00,66.4,62.4,29.99,SSE,159,0.0,13.0,87,0.00,,,0.00,0,Wunderground v.1.15,2013-09-04 10:00:00,
2013-09-04 07:00:00,65.8,62.5,30.02,NE,39,0.0,13.0,89,0.00,,,0.00,0,Wunderground v.1.15,2013-09-04 11:00:00,
2013-09-04 08:00:00,65.6,63.2,30.04,NE,39,0.0,13.0,92,0.00,,,0.00,18,Wunderground v.1.15,2013-09-04 12:00:00,
2013-09-04 09:00:00,69.3,62.9,30.05,NNE,14,0.0,13.0,80,0.00,,,0.00,44,Wunderground v.1.15,2013-09-04 13:00:00,
2013-09-04 10:00:00,72.7,62.8,30.07,NE,39,0.0,13.0,71,0.00,,,0.00,39,Wunderground v.1.15,2013-09-04 14:00:00,
2013-09-04 11:00:00,75.6,64.3,30.08,NNE,23,2.0,13.0,68,0.00,,,0.00,640,Wunderground v.1.15,2013-09-04 15:00:00,
2013-09-04 12:00:00,78.1,64.9,30.08,NE,34,1.0,13.0,64,0.00,,,0.00,775,Wunderground v.1.15,2013-09-04 16:00:00,
2013-09-04 13:00:00,80.7,63.0,30.07,NNW,345,2.0,13.0,55,0.00,,,0.00,858,Wunderground v.1.15,2013-09-04 17:00:00,
2013-09-04 14:00:00,82.4,62.5,30.06,NNE,15,1.0,13.0,51,0.00,,,0.00,895,Wunderground v.1.15,2013-09-04 18:00:00,
2013-09-04 15:00:00,83.4,61.1,30.04,NNE,27,2.0,13.0,47,0.00,,,0.00,102,Wunderground v.1.15,2013-09-04 19:00:00,
2013-09-04 17:00:00,85.3,62.2,30.02,North,5,1.0,13.0,46,0.00,,,0.00,519,Wunderground v.1.15,2013-09-04 21:00:00,
2013-09-04 18:00:00,83.0,64.1,30.01,NNE,27,0.0,13.0,53,0.00,,,0.00,369,Wunderground v.1.15,2013-09-04 22:00:00,
2013-09-04 19:00:00,82.4,63.5,30.01,NNE,20,0.0,13.0,53,0.00,,,0.00,33,Wunderground v.1.15,2013-09-04 23:00:00,
2013-09-04 20:00:00,78.8,64.2,30.02,NNE,20,0.0,13.0,61,0.00,,,0.00,5,Wunderground v.1.15,2013-09-05 00:00:00,
2013-09-04 21:00:00,76.3,68.2,30.04,NNE,20,0.0,13.0,76,0.00,,,0.00,0,Wunderground v.1.15,2013-09-05 01:00:00,
2013-09-04 22:00:00,74.6,66.5,30.07,NNE,18,0.0,13.0,76,0.00,,,0.00,0,Wunderground v.1.15,2013-09-05 02:00:00,
2013-09-04 23:00:00,73.3,64.5,30.08,NNE,18,0.0,13.0,74,0.00,,,0.00,0,Wunderground v.1.15,2013-09-05 03:00:00,